Time;durP1;ratioP1;P1;durP2;ratioP2;P2;SDS_P1;SDS_P2;PMS_P1;PMS_P2;Temp;Humidity;BMP_temperature;BMP_pressure;BME280_temperature;BME280_humidity;BME280_pressure;Samples;Min_cycle;Max_cycle;Signal;HPM_P1;HPM_P2
2023/03/24 00:02:24;;;;;;;12.80;2.30;;;;;;;11.84;72.37;99607.65;109873;1276;22201;-60
2023/03/24 00:04:57;;;;;;;11.60;2.60;;;;;;;11.85;72.39;99604.90;109873;1275;23014;-59
2023/03/24 00:07:29;;;;;;;9.90;2.00;;;;;;;11.86;72.38;99607.45;109888;1277;22150;-60
2023/03/24 00:10:00;;;;;;;12.90;2.50;;;;;;;11.87;72.51;99606.13;109899;1276;22188;-60
2023/03/24 00:12:31;;;;;;;11.80;2.30;;;;;;;11.86;72.50;99606.08;109889;1274;22206;-60
2023/03/24 00:15:03;;;;;;;15.00;2.50;;;;;;;11.85;72.54;99603.14;109884;1283;23051;-60
2023/03/24 00:17:35;;;;;;;10.00;2.10;;;;;;;11.86;72.49;99603.53;107504;1267;22523;-59
2023/03/24 00:20:13;;;;;;;12.70;2.40;;;;;;;11.86;72.46;99596.98;109883;1274;22247;-59
2023/03/24 00:22:48;;;;;;;11.50;2.20;;;;;;;11.87;72.50;99595.11;109860;1277;22167;-59
2023/03/24 00:25:22;;;;;;;9.10;1.90;;;;;;;11.87;72.73;99595.36;109883;1276;22907;-58
2023/03/24 00:27:53;;;;;;;11.50;1.90;;;;;;;11.84;72.77;99593.67;109859;1279;22157;-58
2023/03/24 00:30:25;;;;;;;5.80;1.70;;;;;;;11.83;72.88;99589.45;105759;1274;5435316;-58
2023/03/24 00:32:57;;;;;;;8.60;1.70;;;;;;;11.82;72.87;99586.70;109881;1275;22334;-58
2023/03/24 00:35:28;;;;;;;7.90;1.70;;;;;;;11.81;73.09;99585.12;109861;1275;22180;-58
2023/03/24 00:37:59;;;;;;;13.20;1.60;;;;;;;11.80;73.16;99580.69;109877;1276;22846;-58
2023/03/24 00:40:30;;;;;;;9.90;1.90;;;;;;;11.80;73.28;99578.55;109846;1267;22158;-58
2023/03/24 00:43:02;;;;;;;8.20;1.80;;;;;;;11.79;73.43;99574.58;109876;1279;23188;-58
2023/03/24 00:45:33;;;;;;;10.20;2.10;;;;;;;11.79;73.50;99570.88;108811;1280;24233;-57
2023/03/24 00:48:05;;;;;;;8.50;1.50;;;;;;;11.80;73.42;99565.95;105837;1273;24271;-57
2023/03/24 00:50:36;;;;;;;8.00;1.70;;;;;;;11.80;73.50;99562.84;109849;1283;22173;-59
2023/03/24 00:53:08;;;;;;;9.80;1.60;;;;;;;11.80;73.57;99564.31;109876;1267;22224;-59
2023/03/24 00:55:39;;;;;;;7.80;1.80;;;;;;;11.80;73.42;99561.72;109883;1270;22195;-59
2023/03/24 00:58:16;;;;;;;9.70;2.00;;;;;;;11.80;73.60;99558.52;109890;1276;22238;-59
2023/03/24 01:00:49;;;;;;;7.10;1.60;;;;;;;11.80;73.65;99555.72;109839;1279;23198;-58
2023/03/24 01:03:25;;;;;;;9.50;1.70;;;;;;;11.80;73.84;99547.23;109908;1267;23410;-58
2023/03/24 01:06:00;;;;;;;9.90;1.90;;;;;;;11.81;73.82;99541.65;109891;1267;22162;-59
2023/03/24 01:08:31;;;;;;;8.70;1.70;;;;;;;11.82;73.91;99543.47;109861;1277;22152;-59
2023/03/24 01:11:03;;;;;;;11.20;1.80;;;;;;;11.83;74.06;99537.98;109858;1276;23347;-59
2023/03/24 01:13:34;;;;;;;11.10;1.80;;;;;;;11.84;73.91;99534.78;109865;1275;22869;-59
2023/03/24 01:16:06;;;;;;;11.90;2.30;;;;;;;11.85;73.97;99524.52;109890;1274;22207;-59
2023/03/24 01:18:39;;;;;;;25.70;3.40;;;;;;;11.86;74.05;99518.77;109873;1267;22179;-58
2023/03/24 01:21:11;;;;;;;8.20;1.70;;;;;;;11.86;73.89;99523.24;109848;1267;22168;-59
2023/03/24 01:23:42;;;;;;;7.80;1.70;;;;;;;11.85;74.10;99518.88;109872;1282;22191;-59
2023/03/24 01:26:13;;;;;;;6.00;1.50;;;;;;;11.85;74.08;99522.38;109849;1276;22163;-58
2023/03/24 01:28:44;;;;;;;6.30;1.40;;;;;;;11.85;74.29;99519.58;109863;1276;22179;-59
2023/03/24 01:31:15;;;;;;;9.90;2.20;;;;;;;11.85;74.26;99516.93;109892;1270;22286;-59
2023/03/24 01:33:46;;;;;;;10.00;1.40;;;;;;;11.86;74.36;99516.54;109854;1277;22326;-59
2023/03/24 01:36:18;;;;;;;6.70;1.60;;;;;;;11.88;74.64;99507.69;109885;1267;22177;-59
2023/03/24 01:38:49;;;;;;;5.90;1.50;;;;;;;11.88;74.68;99505.20;109910;1276;22938;-58
2023/03/24 01:41:20;;;;;;;7.20;1.80;;;;;;;11.89;74.67;99506.89;109891;1276;22190;-59
2023/03/24 01:43:51;;;;;;;5.60;1.50;;;;;;;11.91;74.72;99509.73;109877;1277;22207;-59
2023/03/24 01:46:25;;;;;;;8.20;2.00;;;;;;;11.92;74.77;99509.94;109867;1274;22249;-59
2023/03/24 01:49:00;;;;;;;11.60;1.70;;;;;;;11.95;74.87;99505.21;109884;1276;22174;-59
2023/03/24 01:51:34;;;;;;;9.60;1.50;;;;;;;11.96;75.01;99505.98;109898;1267;23390;-59
2023/03/24 01:54:11;;;;;;;7.50;1.50;;;;;;;11.98;74.96;99509.13;109874;1276;22201;-59
2023/03/24 01:56:47;;;;;;;8.90;1.60;;;;;;;11.99;74.96;99502.21;109895;1282;23315;-59
2023/03/24 01:59:22;;;;;;;7.40;1.40;;;;;;;12.03;75.06;99506.64;109825;1279;22173;-59
2023/03/24 02:02:01;;;;;;;7.30;1.40;;;;;;;12.06;75.09;99501.45;109802;1279;22168;-59
2023/03/24 02:04:37;;;;;;;7.00;1.30;;;;;;;12.08;75.21;99497.19;109904;1276;22288;-58
2023/03/24 02:07:12;;;;;;;6.30;1.30;;;;;;;12.11;75.02;99494.76;109836;1276;23027;-59
2023/03/24 02:09:43;;;;;;;10.50;1.30;;;;;;;12.13;75.10;99485.03;109870;1276;22996;-59
2023/03/24 02:12:15;;;;;;;9.90;1.40;;;;;;;12.15;74.86;99472.83;109882;1267;22195;-59
2023/03/24 02:14:46;;;;;;;7.90;1.70;;;;;;;12.17;75.02;99475.23;109878;1276;22445;-59
2023/03/24 02:17:42;;;;;;;8.20;1.50;;;;;;;12.19;75.03;99473.95;109877;1272;22224;-59
2023/03/24 02:20:42;;;;;;;8.90;1.90;;;;;;;12.22;75.08;99470.48;109878;1273;22219;-59
2023/03/24 02:23:53;;;;;;;12.00;1.80;;;;;;;12.24;74.95;99467.64;109884;1277;22184;-59
2023/03/24 02:26:53;;;;;;;6.00;1.30;;;;;;;12.26;75.03;99467.89;109599;1276;22221;-58
2023/03/24 02:29:56;;;;;;;6.30;1.20;;;;;;;12.28;75.05;99459.44;109617;1276;22232;-58
2023/03/24 02:32:47;;;;;;;7.50;1.30;;;;;;;12.30;75.12;99462.24;109637;1271;22221;-58
2023/03/24 02:35:49;;;;;;;7.80;1.50;;;;;;;12.32;75.05;99465.45;109613;1276;22232;-59
2023/03/24 02:38:49;;;;;;;5.90;1.50;;;;;;;12.34;75.08;99458.64;109596;1279;22194;-59
2023/03/24 02:41:26;;;;;;;8.40;1.50;;;;;;;12.35;74.99;99457.45;109608;1279;22228;-59
2023/03/24 02:44:04;;;;;;;7.30;1.70;;;;;;;12.38;75.00;99454.30;109616;1273;23152;-58
2023/03/24 02:46:43;;;;;;;6.50;1.40;;;;;;;12.40;74.90;99453.69;109612;1276;22229;-59
2023/03/24 02:49:26;;;;;;;7.60;1.60;;;;;;;12.41;74.92;99453.59;109605;1273;22952;-59
2023/03/24 02:52:02;;;;;;;6.20;1.30;;;;;;;12.44;75.08;99452.52;109591;1280;22192;-59
2023/03/24 02:54:40;;;;;;;7.00;1.40;;;;;;;12.45;75.11;99447.06;109587;1279;22933;-58
2023/03/24 02:57:18;;;;;;;7.00;1.10;;;;;;;12.47;75.09;99446.00;109583;1273;22395;-59
2023/03/24 02:59:55;;;;;;;6.20;1.40;;;;;;;12.47;75.15;99441.98;109587;1281;22791;-59
2023/03/24 03:02:32;;;;;;;8.10;1.40;;;;;;;12.48;75.27;99442.58;109623;1273;22184;-58
2023/03/24 03:05:12;;;;;;;7.30;1.40;;;;;;;12.49;75.48;99441.27;109870;1276;22273;-59
2023/03/24 03:07:46;;;;;;;6.50;1.40;;;;;;;12.49;75.63;99440.13;109889;1277;22808;-59
2023/03/24 03:10:21;;;;;;;6.10;1.70;;;;;;;12.49;75.94;99441.11;109888;1277;22217;-59
2023/03/24 03:12:55;;;;;;;9.00;1.50;;;;;;;12.49;76.07;99440.09;109827;1277;22251;-58
2023/03/24 03:15:32;;;;;;;6.20;1.40;;;;;;;12.48;76.26;99436.27;109882;1267;22317;-59
2023/03/24 03:18:09;;;;;;;7.10;1.30;;;;;;;12.47;76.44;99436.83;109818;1273;22170;-59
2023/03/24 03:20:52;;;;;;;9.30;1.40;;;;;;;12.47;76.61;99437.34;109886;1283;23304;-58
2023/03/24 03:23:29;;;;;;;6.10;1.40;;;;;;;12.47;76.70;99437.95;109916;1270;22219;-58
2023/03/24 03:26:04;;;;;;;6.70;1.30;;;;;;;12.47;76.98;99436.02;109884;1267;22226;-59
2023/03/24 03:28:40;;;;;;;12.00;1.50;;;;;;;12.46;77.24;99430.57;109896;1272;22137;-58
2023/03/24 03:31:15;;;;;;;5.60;1.30;;;;;;;12.44;77.27;99435.36;109897;1272;22240;-59
2023/03/24 03:33:51;;;;;;;8.20;1.60;;;;;;;12.42;77.66;99429.52;109822;1279;22996;-58
2023/03/24 03:36:26;;;;;;;5.40;1.40;;;;;;;12.39;77.64;99434.45;109860;1274;22361;-58
2023/03/24 03:39:07;;;;;;;5.80;1.40;;;;;;;12.37;77.82;99435.06;109895;1277;22981;-58
2023/03/24 03:41:40;;;;;;;8.30;1.50;;;;;;;12.36;77.85;99434.95;108887;1282;22562;-57
2023/03/24 03:44:12;;;;;;;5.40;1.30;;;;;;;12.37;77.86;99433.84;105775;1276;24326;-58
2023/03/24 03:46:43;;;;;;;4.50;1.10;;;;;;;12.38;77.69;99434.25;105801;1276;22524;-58
2023/03/24 03:49:15;;;;;;;4.10;1.20;;;;;;;12.38;78.25;99429.62;105798;1282;22551;-58
2023/03/24 03:51:46;;;;;;;8.40;1.40;;;;;;;12.36;78.39;99427.60;109879;1276;22298;-59
2023/03/24 03:54:18;;;;;;;6.30;1.40;;;;;;;12.34;78.58;99426.22;109877;1267;22180;-59
2023/03/24 03:56:51;;;;;;;5.50;1.30;;;;;;;12.31;78.59;99419.86;109906;1282;22190;-61
2023/03/24 03:59:32;;;;;;;6.70;1.30;;;;;;;12.28;78.56;99414.41;109913;1273;23065;-59
2023/03/24 04:02:16;;;;;;;8.90;1.70;;;;;;;12.25;78.76;99414.52;109896;1267;22274;-59
2023/03/24 04:05:20;;;;;;;9.20;1.70;;;;;;;12.22;78.80;99412.89;109830;1270;22339;-60
2023/03/24 04:08:07;;;;;;;10.90;1.90;;;;;;;12.20;79.00;99410.86;109864;1272;22935;-60
2023/03/24 04:11:07;;;;;;;6.00;1.50;;;;;;;12.18;78.96;99408.42;109888;1276;22169;-59
2023/03/24 04:13:40;;;;;;;;;;;;;;;12.16;79.03;99403.14;109549;1283;22475;-59
2023/03/24 04:16:20;;;;;;;5.20;1.30;;;;;;;12.13;79.32;99405.89;109500;1280;22226;-60
2023/03/24 04:18:58;;;;;;;;;;;;;;;12.12;79.20;99404.05;109581;1286;23398;-60
2023/03/24 04:21:47;;;;;;;11.60;2.00;;;;;;;12.10;79.38;99400.48;109491;1279;22198;-59
2023/03/24 04:24:39;;;;;;;8.60;1.30;;;;;;;12.09;79.19;99402.73;109559;1273;22311;-59
2023/03/24 04:27:25;;;;;;;8.00;1.60;;;;;;;12.10;79.32;99401.70;109196;1285;22189;-59
2023/03/24 04:30:06;;;;;;;4.10;1.20;;;;;;;12.09;79.34;99396.88;109222;1292;22404;-60
2023/03/24 04:32:46;;;;;;;8.20;1.50;;;;;;;12.08;79.40;99396.83;105427;1292;22536;-57
2023/03/24 04:35:30;;;;;;;6.70;1.50;;;;;;;12.07;79.49;99393.27;109184;1285;22249;-59
2023/03/24 04:38:03;;;;;;;6.30;1.40;;;;;;;12.09;79.48;99391.99;109188;1285;22347;-60
2023/03/24 04:40:40;;;;;;;8.20;1.50;;;;;;;12.09;79.36;99385.83;109197;1279;22314;-59
2023/03/24 04:43:16;;;;;;;7.40;1.50;;;;;;;12.12;79.56;99386.80;109181;1285;22419;-59
2023/03/24 04:45:48;;;;;;;9.70;2.10;;;;;;;12.12;79.59;99382.92;109143;1285;22380;-60
2023/03/24 04:48:20;;;;;;;6.20;1.50;;;;;;;12.13;79.46;99385.02;109210;1276;22445;-59
2023/03/24 04:50:56;;;;;;;6.90;1.20;;;;;;;12.14;79.66;99385.98;109351;1288;23545;-60
2023/03/24 04:53:28;;;;;;;6.30;1.30;;;;;;;12.15;79.57;99381.98;109538;1279;22659;-59
2023/03/24 04:56:07;;;;;;;6.10;1.60;;;;;;;12.17;79.42;99381.76;109533;1285;22184;-59
2023/03/24 04:58:38;;;;;;;6.80;1.40;;;;;;;12.18;79.58;99377.75;109565;1282;22237;-59
2023/03/24 05:01:09;;;;;;;6.70;1.50;;;;;;;12.20;79.56;99379.98;109548;1273;22244;-59
2023/03/24 05:03:40;;;;;;;4.80;1.40;;;;;;;12.21;79.58;99374.54;109505;1279;22349;-59
2023/03/24 05:06:12;;;;;;;8.20;1.40;;;;;;;12.22;79.67;99373.83;109786;1267;23805;-59
2023/03/24 05:08:44;;;;;;;6.10;1.50;;;;;;;12.22;79.78;99371.59;109908;1267;22826;-58
2023/03/24 05:11:16;;;;;;;6.60;1.50;;;;;;;12.23;79.74;99366.33;109841;1276;22271;-59
2023/03/24 05:13:47;;;;;;;5.70;1.30;;;;;;;12.23;79.75;99368.63;109875;1267;22961;-59
2023/03/24 05:16:18;;;;;;;6.40;1.40;;;;;;;12.24;79.74;99365.22;109863;1274;22221;-58
2023/03/24 05:18:49;;;;;;;8.30;1.70;;;;;;;12.26;79.90;99363.18;109882;1278;22208;-59
2023/03/24 05:21:20;;;;;;;7.40;1.60;;;;;;;12.27;79.89;99361.95;109887;1267;22151;-60
2023/03/24 05:23:51;;;;;;;7.40;1.50;;;;;;;12.28;79.88;99363.18;109913;1282;22313;-60
2023/03/24 05:26:22;;;;;;;4.90;1.30;;;;;;;12.30;79.61;99366.67;109881;1272;22999;-61
2023/03/24 05:28:54;;;;;;;7.70;1.30;;;;;;;12.32;79.80;99366.67;109882;1276;22360;-61
2023/03/24 05:31:24;;;;;;;6.60;1.90;;;;;;;12.34;79.98;99366.36;109881;1272;22361;-60
2023/03/24 05:33:55;;;;;;;6.00;1.40;;;;;;;12.36;79.88;99371.20;109879;1273;22281;-60
2023/03/24 05:36:26;;;;;;;6.90;1.50;;;;;;;12.37;80.16;99367.18;109831;1276;22163;-60
2023/03/24 05:38:57;;;;;;;6.50;1.30;;;;;;;12.38;80.16;99368.30;109865;1283;22126;-60
2023/03/24 05:41:29;;;;;;;6.30;1.40;;;;;;;12.41;80.11;99369.81;109857;1270;22324;-60
2023/03/24 05:44:00;;;;;;;7.40;1.40;;;;;;;12.43;80.21;99366.65;109880;1283;22959;-60
2023/03/24 05:46:31;;;;;;;10.30;1.50;;;;;;;12.46;80.13;99361.91;109868;1271;22154;-60
2023/03/24 05:49:01;;;;;;;8.80;1.30;;;;;;;12.48;80.36;99367.00;109891;1276;22207;-60
2023/03/24 05:51:32;;;;;;;4.10;1.30;;;;;;;12.51;80.35;99367.09;109878;1276;22192;-60
2023/03/24 05:54:04;;;;;;;4.70;1.30;;;;;;;12.55;80.51;99373.86;109904;1282;23101;-60
2023/03/24 05:56:36;;;;;;;6.70;1.30;;;;;;;12.58;80.50;99370.07;109887;1276;22153;-60
2023/03/24 05:59:07;;;;;;;6.50;1.50;;;;;;;12.62;80.47;99367.16;109855;1276;22889;-60
2023/03/24 06:01:38;;;;;;;5.90;1.50;;;;;;;12.65;80.52;99366.54;109876;1277;22205;-61
2023/03/24 06:04:10;;;;;;;6.30;1.20;;;;;;;12.67;80.45;99360.52;109862;1277;22222;-60
2023/03/24 06:06:44;;;;;;;7.40;1.20;;;;;;;12.70;80.42;99360.58;109905;1277;22193;-61
2023/03/24 06:09:15;;;;;;;6.90;1.40;;;;;;;12.73;80.44;99358.56;109813;1268;22372;-60
2023/03/24 06:11:46;;;;;;;8.20;1.20;;;;;;;12.76;80.32;99360.90;109890;1276;22318;-61
2023/03/24 06:14:17;;;;;;;4.80;1.10;;;;;;;12.80;80.29;99363.48;109886;1277;22136;-61
2023/03/24 06:16:49;;;;;;;4.70;1.10;;;;;;;12.84;80.13;99362.34;109889;1283;22331;-61
2023/03/24 06:19:21;;;;;;;5.50;1.40;;;;;;;12.89;80.12;99361.55;109888;1276;22113;-61
2023/03/24 06:21:52;;;;;;;6.40;1.10;;;;;;;12.94;80.09;99362.45;109883;1277;22159;-61
2023/03/24 06:24:23;;;;;;;6.90;1.30;;;;;;;12.99;80.05;99356.42;109895;1277;22165;-61
2023/03/24 06:26:57;;;;;;;8.50;1.30;;;;;;;13.04;79.88;99353.60;109911;1283;22988;-61
2023/03/24 06:29:29;;;;;;;3.90;1.00;;;;;;;13.09;79.89;99352.61;109837;1279;22218;-61
2023/03/24 06:32:00;;;;;;;5.10;1.60;;;;;;;13.15;79.79;99350.36;109896;1273;22136;-61
2023/03/24 06:34:31;;;;;;;8.20;1.30;;;;;;;13.19;79.63;99352.41;109884;1277;22205;-61
2023/03/24 06:37:04;;;;;;;5.40;1.50;;;;;;;13.23;79.54;99355.30;109913;1276;22875;-61
2023/03/24 06:39:35;;;;;;;7.20;1.40;;;;;;;13.27;79.53;99358.14;109885;1275;22265;-61
2023/03/24 06:42:06;;;;;;;6.20;1.20;;;;;;;13.29;79.63;99361.79;109910;1277;22219;-61
2023/03/24 06:44:37;;;;;;;5.30;1.50;;;;;;;13.32;79.50;99360.34;109892;1275;22123;-61
2023/03/24 06:47:08;;;;;;;6.40;1.40;;;;;;;13.36;79.29;99352.77;109912;1277;23042;-61
2023/03/24 06:49:38;;;;;;;7.10;1.20;;;;;;;13.39;79.29;99351.27;109913;1279;22184;-61
2023/03/24 06:52:09;;;;;;;8.00;1.50;;;;;;;13.44;79.45;99348.02;109876;1280;22262;-61
2023/03/24 06:54:40;;;;;;;4.50;1.10;;;;;;;13.49;79.34;99352.34;109911;1270;22363;-61
2023/03/24 06:57:11;;;;;;;5.70;1.40;;;;;;;13.53;79.25;99353.31;109885;1282;22338;-61
2023/03/24 06:59:42;;;;;;;7.00;1.40;;;;;;;13.58;79.08;99351.28;109873;1282;22247;-61
2023/03/24 07:02:14;;;;;;;5.90;1.20;;;;;;;13.63;78.96;99356.20;109866;1279;23053;-61
2023/03/24 07:04:45;;;;;;;9.10;1.60;;;;;;;13.68;78.94;99353.62;109901;1276;23156;-61
2023/03/24 07:07:17;;;;;;;10.20;1.70;;;;;;;13.72;78.91;99355.05;109894;1267;22767;-61
2023/03/24 07:09:49;;;;;;;7.20;1.60;;;;;;;13.77;79.04;99353.80;109903;1280;22320;-61
2023/03/24 07:12:20;;;;;;;8.70;1.50;;;;;;;13.82;79.14;99352.08;109917;1267;22296;-61
2023/03/24 07:14:51;;;;;;;6.00;1.20;;;;;;;13.87;79.43;99351.68;109893;1283;22404;-61
2023/03/24 07:17:22;;;;;;;8.50;1.30;;;;;;;13.91;79.39;99352.05;109880;1279;22147;-61
2023/03/24 07:19:52;;;;;;;9.30;1.30;;;;;;;13.94;79.53;99351.66;109872;1275;22249;-61
2023/03/24 07:22:23;;;;;;;6.50;1.50;;;;;;;13.96;79.47;99354.29;109917;1275;22948;-61
2023/03/24 07:24:56;;;;;;;6.30;1.20;;;;;;;13.99;79.54;99355.29;109886;1276;22356;-61
2023/03/24 07:27:27;;;;;;;10.90;1.60;;;;;;;14.01;79.39;99356.34;109874;1274;22541;-61
2023/03/24 07:29:58;;;;;;;5.60;1.20;;;;;;;14.04;79.78;99351.73;109786;1282;23184;-61
2023/03/24 07:32:33;;;;;;;6.30;1.50;;;;;;;14.07;79.71;99350.58;105994;1280;25343;-61
2023/03/24 07:35:06;;;;;;;7.00;1.40;;;;;;;14.10;79.71;99351.01;109894;1279;23003;-61
2023/03/24 07:37:36;;;;;;;4.80;1.20;;;;;;;14.11;79.55;99349.11;109899;1280;22200;-61
2023/03/24 07:40:10;;;;;;;6.10;1.70;;;;;;;14.12;79.79;99347.87;109901;1277;22298;-61
2023/03/24 07:42:42;;;;;;;6.10;1.40;;;;;;;14.11;79.92;99347.41;109869;1279;23188;-61
2023/03/24 07:45:14;;;;;;;7.10;1.50;;;;;;;14.11;79.96;99343.97;109900;1274;22287;-61
2023/03/24 07:47:46;;;;;;;11.30;1.60;;;;;;;14.11;80.39;99347.69;109901;1276;22335;-61
2023/03/24 07:50:18;;;;;;;7.10;1.60;;;;;;;14.11;80.59;99348.50;109881;1281;22174;-62
2023/03/24 07:52:50;;;;;;;7.20;1.60;;;;;;;14.10;80.77;99347.59;109897;1279;22169;-61
2023/03/24 07:55:21;;;;;;;6.00;1.60;;;;;;;14.10;80.95;99343.30;109873;1276;22216;-61
2023/03/24 07:57:52;;;;;;;8.30;1.90;;;;;;;14.08;81.12;99340.11;109866;1277;22173;-61
2023/03/24 08:00:23;;;;;;;10.20;2.20;;;;;;;14.05;81.21;99334.92;109885;1267;22269;-61
2023/03/24 08:02:55;;;;;;;12.10;2.50;;;;;;;14.02;81.28;99340.32;109914;1282;22192;-61
2023/03/24 08:05:28;;;;;;;11.90;3.40;;;;;;;13.97;81.42;99332.00;109892;1279;22116;-61
2023/03/24 08:07:59;;;;;;;8.90;2.00;;;;;;;13.93;81.52;99330.14;109886;1280;22142;-61
2023/03/24 08:10:31;;;;;;;9.10;2.00;;;;;;;13.90;81.62;99321.20;109880;1277;22215;-61
2023/03/24 08:13:02;;;;;;;6.30;1.80;;;;;;;13.89;81.85;99312.89;109914;1277;22215;-61
2023/03/24 08:15:33;;;;;;;6.70;1.50;;;;;;;13.87;81.92;99306.34;109878;1274;22950;-61
2023/03/24 08:18:05;;;;;;;6.80;2.00;;;;;;;13.85;81.96;99303.80;109902;1283;22984;-61
2023/03/24 08:20:36;;;;;;;8.70;1.90;;;;;;;13.84;82.04;99305.45;109919;1283;22164;-62
2023/03/24 08:23:07;;;;;;;12.30;1.80;;;;;;;13.81;81.99;99300.67;109880;1273;22223;-61
2023/03/24 08:25:38;;;;;;;9.00;2.10;;;;;;;13.81;82.07;99298.79;109887;1280;22189;-61
2023/03/24 08:28:09;;;;;;;6.50;1.60;;;;;;;13.79;82.22;99301.55;109881;1277;22210;-61
2023/03/24 08:30:42;;;;;;;7.30;1.70;;;;;;;13.79;82.43;99304.66;109894;1279;22160;-61
2023/03/24 08:33:14;;;;;;;6.30;1.40;;;;;;;13.80;82.71;99307.98;109883;1276;22368;-61
2023/03/24 08:35:45;;;;;;;7.50;1.50;;;;;;;13.83;82.78;99301.71;109892;1283;22327;-62
2023/03/24 08:38:16;;;;;;;6.80;1.40;;;;;;;13.88;82.91;99302.86;109918;1280;22272;-61
2023/03/24 08:40:47;;;;;;;7.30;1.80;;;;;;;13.95;83.06;99298.45;109897;1279;22313;-63
2023/03/24 08:43:22;;;;;;;6.80;1.40;;;;;;;14.03;83.01;99294.02;109881;1279;22194;-61
2023/03/24 08:45:53;;;;;;;7.50;1.40;;;;;;;14.15;83.31;99288.65;109879;1279;22917;-61
2023/03/24 08:48:24;;;;;;;8.00;1.40;;;;;;;14.30;83.65;99283.14;109900;1277;22259;-61
2023/03/24 08:50:55;;;;;;;8.20;1.70;;;;;;;14.49;83.31;99271.65;109892;1279;22192;-61
2023/03/24 08:53:26;;;;;;;6.10;1.20;;;;;;;14.65;82.41;99278.04;109881;1279;22240;-61
2023/03/24 08:55:57;;;;;;;7.50;1.40;;;;;;;14.81;81.99;99271.39;109882;1282;22174;-61
2023/03/24 08:58:28;;;;;;;5.10;1.50;;;;;;;14.97;81.42;99262.33;109873;1279;23035;-61
2023/03/24 09:00:59;;;;;;;6.60;1.20;;;;;;;15.12;81.26;99263.22;109889;1275;22160;-61
2023/03/24 09:03:30;;;;;;;6.50;1.20;;;;;;;15.24;80.87;99261.51;109895;1274;23104;-61
2023/03/24 09:06:02;;;;;;;5.70;1.10;;;;;;;15.33;80.59;99261.37;109888;1283;23002;-62
2023/03/24 09:08:33;;;;;;;4.20;1.10;;;;;;;15.40;80.15;99253.14;109904;1279;22188;-61
2023/03/24 09:11:05;;;;;;;7.90;1.20;;;;;;;15.45;79.65;99245.52;109864;1277;22274;-61
2023/03/24 09:13:36;;;;;;;4.50;1.10;;;;;;;15.50;79.47;99245.18;109873;1280;22222;-61
2023/03/24 09:16:07;;;;;;;4.80;1.10;;;;;;;15.54;78.90;99239.22;109855;1279;22408;-61
2023/03/24 09:18:38;;;;;;;4.30;1.00;;;;;;;15.58;78.98;99237.71;109885;1278;22179;-61
2023/03/24 09:21:10;;;;;;;7.40;1.40;;;;;;;15.64;78.84;99238.93;109890;1276;22940;-61
2023/03/24 09:23:41;;;;;;;10.50;1.40;;;;;;;15.69;78.56;99233.13;109915;1283;22817;-61
2023/03/24 09:26:12;;;;;;;5.70;1.40;;;;;;;15.75;78.64;99233.17;109870;1280;22158;-60
2023/03/24 09:28:42;;;;;;;4.50;1.30;;;;;;;15.80;78.63;99229.13;109889;1276;22883;-61
2023/03/24 09:31:14;;;;;;;5.90;1.20;;;;;;;15.86;78.54;99224.84;109889;1280;22863;-61
2023/03/24 09:33:45;;;;;;;5.60;1.10;;;;;;;15.91;78.09;99219.20;109888;1279;23290;-61
2023/03/24 09:36:16;;;;;;;4.40;0.90;;;;;;;15.95;78.23;99215.14;109892;1276;22343;-61
2023/03/24 09:38:47;;;;;;;6.90;1.20;;;;;;;16.01;78.36;99212.02;109922;1282;22323;-61
2023/03/24 09:41:20;;;;;;;4.90;1.10;;;;;;;16.08;77.66;99208.39;109907;1273;22240;-61
2023/03/24 09:43:56;;;;;;;4.70;1.10;;;;;;;16.15;77.24;99202.83;109910;1275;22270;-61
2023/03/24 09:46:32;;;;;;;4.20;0.80;;;;;;;16.26;77.36;99201.23;109911;1267;22152;-61
2023/03/24 09:49:04;;;;;;;6.60;1.20;;;;;;;16.37;76.69;99195.30;109880;1273;22164;-61
2023/03/24 09:51:40;;;;;;;3.70;0.80;;;;;;;16.48;76.58;99196.83;109905;1279;22331;-61
2023/03/24 09:54:18;;;;;;;3.20;0.90;;;;;;;16.58;75.95;99188.34;109865;1274;22365;-60
2023/03/24 09:56:51;;;;;;;4.50;0.80;;;;;;;16.67;76.01;99186.63;109890;1282;23442;-61
2023/03/24 09:59:29;;;;;;;2.30;0.60;;;;;;;16.75;75.40;99188.61;109894;1279;22178;-61
2023/03/24 10:02:00;;;;;;;3.70;0.60;;;;;;;16.83;75.01;99187.87;109897;1279;22897;-61
2023/03/24 10:04:32;;;;;;;3.50;0.60;;;;;;;16.92;74.62;99184.98;109896;1277;22217;-61
2023/03/24 10:07:14;;;;;;;5.40;0.80;;;;;;;16.99;74.20;99185.71;109894;1277;22178;-61
2023/03/24 10:09:48;;;;;;;3.20;0.70;;;;;;;17.05;73.63;99182.34;109894;1277;22321;-61
2023/03/24 10:12:34;;;;;;;3.80;0.80;;;;;;;17.12;73.36;99179.81;109897;1278;23015;-61
2023/03/24 10:15:20;;;;;;;3.70;0.60;;;;;;;17.22;73.04;99176.26;109910;1282;22265;-63
2023/03/24 10:17:57;;;;;;;3.20;0.70;;;;;;;17.30;72.60;99169.00;109908;1276;22991;-61
2023/03/24 10:20:37;;;;;;;4.10;0.80;;;;;;;17.36;72.36;99167.09;109907;1274;22248;-61
2023/03/24 10:23:20;;;;;;;5.10;1.10;;;;;;;17.40;72.02;99164.15;109900;1279;23064;-61
2023/03/24 10:25:56;;;;;;;4.70;1.10;;;;;;;17.48;71.74;99157.65;109855;1279;22121;-61
2023/03/24 10:28:34;;;;;;;4.60;1.10;;;;;;;17.60;71.54;99157.15;109911;1279;22832;-61
2023/03/24 10:31:10;;;;;;;4.50;0.90;;;;;;;17.73;71.22;99152.52;109869;1279;22204;-61
2023/03/24 10:33:44;;;;;;;10.40;1.10;;;;;;;17.87;70.88;99151.04;109905;1276;22157;-62
2023/03/24 10:36:18;;;;;;;5.60;0.90;;;;;;;18.00;70.14;99152.36;109882;1277;22272;-61
2023/03/24 10:38:49;;;;;;;4.80;1.00;;;;;;;18.11;69.74;99147.15;109890;1283;22823;-61
2023/03/24 10:41:23;;;;;;;7.10;1.00;;;;;;;18.22;69.23;99147.77;109889;1272;22676;-61
2023/03/24 10:43:57;;;;;;;3.00;0.70;;;;;;;18.33;68.47;99145.59;109901;1279;22185;-62
2023/03/24 10:46:31;;;;;;;4.00;0.90;;;;;;;18.44;67.51;99136.11;109888;1279;22805;-61
2023/03/24 10:49:15;;;;;;;3.60;0.70;;;;;;;18.57;65.81;99132.75;109884;1279;22378;-61
2023/03/24 10:51:49;;;;;;;3.50;0.90;;;;;;;18.67;65.58;99135.98;109897;1273;22347;-62
2023/03/24 10:54:22;;;;;;;4.70;0.80;;;;;;;18.77;64.73;99136.59;109902;1276;22206;-61
2023/03/24 10:57:02;;;;;;;5.10;0.90;;;;;;;18.87;64.35;99136.42;109885;1279;22822;-61
2023/03/24 10:59:36;;;;;;;4.40;1.00;;;;;;;18.95;63.65;99134.11;109904;1280;22209;-61
2023/03/24 11:02:22;;;;;;;5.70;0.90;;;;;;;19.03;63.36;99133.21;109903;1280;22230;-62
2023/03/24 11:04:57;;;;;;;3.70;0.80;;;;;;;19.10;61.90;99134.58;109894;1267;22149;-62
2023/03/24 11:07:34;;;;;;;3.80;0.70;;;;;;;19.10;61.48;99131.41;109892;1277;22979;-61
2023/03/24 11:10:15;;;;;;;3.80;0.70;;;;;;;19.05;60.93;99130.54;109895;1276;22995;-61
2023/03/24 11:13:17;;;;;;;4.20;0.70;;;;;;;18.96;60.46;99132.61;109901;1272;23434;-61
2023/03/24 11:16:04;;;;;;;5.30;0.80;;;;;;;18.88;61.00;99136.10;109878;1279;23181;-62
2023/03/24 11:18:35;;;;;;;4.70;1.00;;;;;;;18.81;60.93;99135.45;109881;1276;23006;-61
2023/03/24 11:21:07;;;;;;;3.10;0.70;;;;;;;18.79;60.41;99133.40;109907;1283;22205;-61
2023/03/24 11:23:43;;;;;;;4.40;0.70;;;;;;;18.78;60.77;99132.00;109912;1277;22164;-61
2023/03/24 11:26:18;;;;;;;8.10;0.90;;;;;;;18.78;60.56;99128.54;109877;1280;22204;-62
2023/03/24 11:28:53;;;;;;;5.40;0.90;;;;;;;18.80;60.25;99127.38;109874;1279;23097;-61
2023/03/24 11:31:29;;;;;;;4.40;0.80;;;;;;;18.81;59.53;99126.99;109905;1273;22144;-61
2023/03/24 11:34:02;;;;;;;2.40;0.50;;;;;;;18.80;59.51;99119.45;109911;1283;22197;-62
2023/03/24 11:36:47;;;;;;;2.90;0.60;;;;;;;18.78;59.54;99119.72;109901;1277;23131;-61
2023/03/24 11:39:20;;;;;;;3.60;0.60;;;;;;;18.76;58.75;99116.31;109870;1277;22987;-61
2023/03/24 11:42:02;;;;;;;2.30;0.70;;;;;;;18.74;58.61;99113.67;109916;1282;22882;-61
2023/03/24 11:44:41;;;;;;;2.60;0.60;;;;;;;18.73;58.80;99112.00;109906;1282;22112;-62
2023/03/24 11:47:18;;;;;;;5.50;0.80;;;;;;;18.74;59.02;99108.27;109881;1277;23132;-61
2023/03/24 11:49:57;;;;;;;5.50;0.70;;;;;;;18.76;59.11;99099.91;109897;1277;22852;-61
2023/03/24 11:52:33;;;;;;;3.20;0.70;;;;;;;18.80;58.61;99102.86;109897;1279;22957;-61
2023/03/24 11:55:13;;;;;;;3.40;0.80;;;;;;;18.85;58.78;99105.40;106870;1274;22551;-61
2023/03/24 11:57:53;;;;;;;2.80;0.60;;;;;;;18.88;59.15;99104.05;109902;1275;22320;-61
2023/03/24 12:00:30;;;;;;;7.40;1.30;;;;;;;18.90;59.37;99106.77;109911;1268;22260;-61